Time;durP1;ratioP1;P1;durP2;ratioP2;P2;SDS_P1;SDS_P2;PMS_P1;PMS_P2;Temp;Humidity;BMP_temperature;BMP_pressure;BME280_temperature;BME280_humidity;BME280_pressure;Samples;Min_cycle;Max_cycle;Signal;HPM_P1;HPM_P2
2023/10/15 00:00:24;;;;;;;5.47;1.55;;;8.70;99.90;;;;;;4870831;29;20061;-75
2023/10/15 00:02:51;;;;;;;5.70;1.33;;;8.60;99.90;;;;;;4870525;29;20240;-75
2023/10/15 00:05:20;;;;;;;5.22;1.73;;;8.60;99.90;;;;;;4854916;29;20033;-76
2023/10/15 00:07:47;;;;;;;7.22;1.60;;;8.50;99.90;;;;;;4855144;29;20109;-77
2023/10/15 00:10:15;;;;;;;4.53;1.33;;;8.50;99.90;;;;;;4868126;29;20037;-77
2023/10/15 00:12:43;;;;;;;;;;;8.50;99.90;;;;;;4874098;29;20032;-75
2023/10/15 00:15:16;;;;;;;7.10;1.50;;;8.40;99.90;;;;;;4891879;29;19914;-77
2023/10/15 00:17:42;;;;;;;4.03;1.50;;;8.40;99.90;;;;;;4892226;29;20096;-76
2023/10/15 00:20:13;;;;;;;5.50;1.40;;;8.40;99.90;;;;;;4894736;29;20304;-76
2023/10/15 00:22:43;;;;;;;5.93;1.50;;;8.30;99.90;;;;;;4889807;29;20036;-77
2023/10/15 00:25:12;;;;;;;4.30;1.40;;;8.30;99.90;;;;;;4872681;29;20040;-76
2023/10/15 00:27:38;;;;;;;5.13;1.60;;;8.20;99.90;;;;;;4876728;29;20164;-77
2023/10/15 00:30:12;;;;;;;6.03;1.70;;;8.10;99.90;;;;;;4907808;29;20259;-78
2023/10/15 07:37:12;;;;;;;7.18;1.67;;;10.90;99.90;;;;;;5449653;23;20130;-76
2023/10/15 07:39:38;;;;;;;4.97;1.30;;;10.90;99.90;;;;;;4927247;29;20032;-79
2023/10/15 07:42:06;;;;;;;3.65;1.38;;;11.00;99.90;;;;;;4891063;29;20064;-77
2023/10/15 07:44:32;;;;;;;5.30;1.30;;;11.00;99.90;;;;;;4895760;29;20248;-77
2023/10/15 07:47:27;;;;;;;5.85;1.77;;;11.00;99.90;;;;;;4898237;29;20318;-78
2023/10/15 07:49:57;;;;;;;9.02;1.77;;;11.10;99.90;;;;;;4876913;29;20299;-76
2023/10/15 07:52:26;;;;;;;7.72;1.83;;;11.10;99.90;;;;;;4893884;29;20036;-76
2023/10/15 07:54:51;;;;;;;9.15;1.92;;;11.10;99.90;;;;;;4911222;29;20044;-78
2023/10/15 07:57:20;;;;;;;6.47;1.40;;;11.10;99.90;;;;;;4928384;29;20016;-78
2023/10/15 07:59:49;;;;;;;;;;;11.20;99.90;;;;;;4907564;29;20032;-77
2023/10/15 08:02:16;;;;;;;4.05;1.00;;;11.30;99.70;;;;;;4909686;29;19907;-77
2023/10/15 08:04:43;;;;;;;4.63;1.05;;;11.40;98.40;;;;;;4928281;29;20075;-75
2023/10/15 08:07:09;;;;;;;4.10;1.10;;;11.40;98.20;;;;;;4911605;29;20035;-75
2023/10/15 08:09:37;;;;;;;4.75;1.23;;;11.40;97.70;;;;;;4911226;29;20028;-74
2023/10/15 08:12:07;;;;;;;5.10;1.13;;;11.40;96.20;;;;;;4896495;29;20020;-75
2023/10/15 08:14:32;;;;;;;7.38;1.27;;;11.50;97.10;;;;;;4894911;29;20309;-75
2023/10/15 08:16:59;;;;;;;4.80;1.08;;;11.50;96.60;;;;;;4920402;29;20052;-78
2023/10/15 08:19:34;;;;;;;6.18;1.23;;;11.60;96.10;;;;;;4888563;29;20028;-78
2023/10/15 08:22:03;;;;;;;4.93;1.40;;;11.60;96.00;;;;;;4892529;29;20259;-77
2023/10/15 08:24:33;;;;;;;5.82;1.20;;;11.50;96.40;;;;;;4911695;29;20028;-79
2023/10/15 08:26:59;;;;;;;10.38;1.38;;;11.60;96.20;;;;;;4910979;29;20397;-76
2023/10/15 08:29:25;;;;;;;4.93;1.08;;;11.80;95.70;;;;;;4892721;29;20020;-77
2023/10/15 08:31:51;;;;;;;6.53;1.58;;;11.90;95.10;;;;;;4904932;29;20036;-77
2023/10/15 08:34:26;;;;;;;6.47;1.10;;;12.10;94.90;;;;;;4909673;29;20280;-78
2023/10/15 08:37:02;;;;;;;4.05;1.20;;;12.30;93.90;;;;;;4907704;29;20119;-77
2023/10/15 08:39:29;;;;;;;4.97;1.20;;;12.30;94.00;;;;;;4908078;29;20032;-79
2023/10/15 08:42:06;;;;;;;4.35;1.05;;;12.20;93.60;;;;;;4886974;29;20067;-75
2023/10/15 08:44:35;;;;;;;5.85;0.90;;;12.20;92.90;;;;;;4905149;29;20064;-77
2023/10/15 08:47:14;;;;;;;3.83;1.00;;;12.10;92.90;;;;;;4893393;29;20060;-76
2023/10/15 08:49:48;;;;;;;10.90;1.10;;;12.10;93.20;;;;;;4875961;29;20024;-77
2023/10/15 08:52:24;;;;;;;7.53;1.10;;;12.30;92.80;;;;;;4876292;29;20341;-77
2023/10/15 08:54:59;;;;;;;8.13;1.48;;;12.20;92.80;;;;;;4877687;29;20083;-77
2023/10/15 08:57:26;;;;;;;6.35;1.20;;;12.30;92.60;;;;;;4883880;29;20021;-77
2023/10/15 09:00:25;;;;;;;5.22;1.00;;;12.30;91.80;;;;;;4877906;29;20028;-76
2023/10/15 09:03:00;;;;;;;3.83;0.63;;;12.30;91.80;;;;;;4878346;29;20020;-75
2023/10/15 09:05:33;;;;;;;4.32;1.08;;;12.60;90.70;;;;;;4890367;29;20043;-78
2023/10/15 09:08:09;;;;;;;4.97;0.70;;;12.80;90.80;;;;;;4890993;29;20024;-74
2023/10/15 09:11:14;;;;;;;3.70;0.90;;;13.10;90.30;;;;;;4889205;29;20348;-76
2023/10/15 09:13:36;;;;;;;9.95;1.90;;;13.10;89.40;;;;;;4905017;29;20044;-76
2023/10/15 09:16:18;;;;;;;3.58;0.70;;;12.90;91.00;;;;;;4876517;29;20048;-77
2023/10/15 09:18:45;;;;;;;4.60;0.93;;;12.50;91.00;;;;;;4875626;29;20203;-79
2023/10/15 09:21:24;;;;;;;3.65;0.80;;;12.20;90.80;;;;;;4875497;29;20091;-77
2023/10/15 09:23:52;;;;;;;4.93;0.90;;;12.00;91.70;;;;;;4890609;29;20203;-76
2023/10/15 09:26:25;;;;;;;4.88;1.00;;;11.80;92.20;;;;;;4890379;29;20036;-76
2023/10/15 09:28:51;;;;;;;4.25;0.70;;;11.80;92.00;;;;;;4890738;29;20032;-78
2023/10/15 09:31:22;;;;;;;5.80;1.00;;;11.70;92.00;;;;;;4886841;29;20074;-76
2023/10/15 09:33:51;;;;;;;6.93;1.00;;;11.90;92.40;;;;;;4875180;29;20072;-77
2023/10/15 09:36:18;;;;;;;3.63;0.80;;;12.10;91.90;;;;;;4874873;29;20025;-75
2023/10/15 09:39:13;;;;;;;4.45;1.02;;;12.30;91.70;;;;;;4875004;29;20056;-77
2023/10/15 09:42:02;;;;;;;3.55;1.00;;;12.50;91.40;;;;;;4872173;29;20210;-78
2023/10/15 09:44:32;;;;;;;6.45;1.65;;;12.80;91.30;;;;;;4891450;29;20037;-76
2023/10/15 09:51:32;;;;;;;6.70;1.15;;;13.20;90.10;;;;;;4853984;29;20092;-77
2023/10/15 09:54:00;;;;;;;5.22;1.15;;;13.00;90.60;;;;;;4834535;29;20163;-77
2023/10/15 09:56:29;;;;;;;3.97;1.55;;;13.20;90.70;;;;;;4832934;29;20135;-77
2023/10/15 09:58:56;;;;;;;6.05;1.20;;;13.30;90.70;;;;;;4825484;29;20030;-75
2023/10/15 10:01:26;;;;;;;5.35;0.85;;;13.50;90.30;;;;;;4830581;29;20063;-76
2023/10/15 10:04:23;;;;;;;3.35;1.00;;;13.60;88.50;;;;;;4834785;29;20084;-77
2023/10/15 10:07:09;;;;;;;3.90;1.02;;;13.70;90.00;;;;;;4816089;29;20331;-80
2023/10/15 10:10:21;;;;;;;3.72;0.80;;;13.90;85.10;;;;;;4821033;29;20025;-78
2023/10/15 10:16:52;;;;;;;4.17;0.90;;;14.60;80.60;;;;;;4710766;30;20068;-77
2023/10/15 10:19:21;;;;;;;3.13;1.27;;;14.50;83.20;;;;;;4709983;30;20057;-78
2023/10/15 10:21:48;;;;;;;3.30;0.70;;;14.40;81.50;;;;;;4709904;30;20045;-76
2023/10/15 10:24:16;;;;;;;3.30;0.60;;;14.20;81.80;;;;;;4719161;30;20082;-77
2023/10/15 10:26:47;;;;;;;2.90;0.90;;;13.70;79.00;;;;;;4726681;30;20275;-77
2023/10/15 10:29:14;;;;;;;3.35;0.88;;;13.80;79.90;;;;;;4729167;30;20049;-78
2023/10/15 10:31:41;;;;;;;3.17;0.85;;;13.70;80.50;;;;;;4723806;30;20025;-76
2023/10/15 10:34:06;;;;;;;2.90;0.90;;;13.50;81.70;;;;;;4744704;30;20288;-77
2023/10/15 10:36:56;;;;;;;5.85;0.95;;;13.20;83.40;;;;;;4729585;30;20052;-78
2023/10/15 10:39:48;;;;;;;4.68;0.70;;;13.30;82.70;;;;;;4744078;30;20044;-79
2023/10/15 10:42:26;;;;;;;3.47;0.93;;;13.60;81.90;;;;;;4730933;30;20152;-77
2023/10/15 10:45:33;;;;;;;4.20;0.70;;;14.10;79.30;;;;;;4728190;30;20053;-77
2023/10/15 10:48:08;;;;;;;2.92;0.60;;;14.60;78.00;;;;;;4712514;30;20048;-80
2023/10/15 10:51:19;;;;;;;4.53;0.85;;;15.60;75.40;;;;;;4781821;29;20128;-78
2023/10/15 10:54:09;;;;;;;2.63;0.55;;;16.50;73.40;;;;;;4868605;29;20045;-78
2023/10/15 10:57:18;;;;;;;4.20;0.55;;;16.00;71.70;;;;;;4865725;29;20295;-81
2023/10/15 10:59:44;;;;;;;4.45;0.60;;;15.90;72.50;;;;;;4868117;29;20105;-77
2023/10/15 11:02:13;;;;;;;2.65;0.55;;;15.20;77.00;;;;;;4868790;29;20026;-80
2023/10/15 11:04:40;;;;;;;;;;;14.50;84.70;;;;;;4871748;29;20311;-78
2023/10/15 11:07:34;;;;;;;4.65;0.77;;;13.70;88.10;;;;;;4852799;29;20098;-76
2023/10/15 11:10:05;;;;;;;3.85;0.82;;;13.20;92.20;;;;;;4853129;29;20127;-82
2023/10/15 11:13:18;;;;;;;2.80;0.90;;;11.50;99.90;;;;;;4868703;29;20315;-79
2023/10/15 11:15:53;;;;;;;3.90;0.98;;;10.60;99.90;;;;;;4871939;29;20056;-79
2023/10/15 11:18:23;;;;;;;5.95;1.10;;;10.30;99.90;;;;;;4856213;29;20041;-79
2023/10/15 11:21:01;;;;;;;3.85;0.90;;;10.20;99.90;;;;;;4871097;29;20033;-82
2023/10/15 11:23:30;;;;;;;;;;;10.10;99.90;;;;;;4871585;29;20057;-81
2023/10/15 11:26:23;;;;;;;3.28;0.73;;;10.20;99.90;;;;;;4871354;29;19912;-81
2023/10/15 11:33:10;;;;;;;4.70;0.70;;;10.10;98.10;;;;;;4872107;29;20152;-79
2023/10/15 11:35:45;;;;;;;3.63;0.95;;;11.00;98.30;;;;;;4885388;29;20052;-80
2023/10/15 11:41:55;;;;;;;5.43;0.70;;;12.30;91.80;;;;;;4872996;29;20062;-80
2023/10/15 11:44:55;;;;;;;3.30;0.90;;;13.20;89.20;;;;;;4885241;29;20097;-82
2023/10/15 11:48:11;;;;;;;3.08;0.77;;;14.50;90.50;;;;;;4888362;29;20040;-78
2023/10/15 11:51:15;;;;;;;3.17;1.00;;;16.00;81.10;;;;;;4881717;29;20135;-83
2023/10/15 11:53:44;;;;;;;4.70;0.60;;;16.20;77.40;;;;;;4875888;29;20061;-81
2023/10/15 12:08:18;;;;;;;4.38;1.25;;;18.40;75.60;;;;;;4850966;29;20060;-78
2023/10/15 12:10:43;;;;;;;4.25;1.42;;;16.80;71.50;;;;;;4829594;29;20031;-79
2023/10/15 12:13:11;;;;;;;4.53;1.25;;;15.70;74.60;;;;;;4870856;29;20080;-80
2023/10/15 12:16:21;;;;;;;3.47;1.00;;;15.10;78.30;;;;;;4885616;29;20219;-80
2023/10/15 12:19:02;;;;;;;3.95;1.15;;;14.70;79.30;;;;;;4870906;29;20058;-79
2023/10/15 12:21:58;;;;;;;3.55;0.90;;;14.00;79.30;;;;;;4885971;29;20036;-80
2023/10/15 12:25:01;;;;;;;3.75;1.20;;;13.70;78.60;;;;;;4883884;29;20097;-78
2023/10/15 12:28:06;;;;;;;3.20;1.20;;;14.00;81.20;;;;;;4892673;29;20037;-81
2023/10/15 12:31:14;;;;;;;3.35;0.80;;;16.40;76.80;;;;;;4871017;29;20072;-80
2023/10/15 12:37:30;;;;;;;;;;;17.70;67.30;;;;;;4874196;29;20045;-78
2023/10/15 12:40:12;;;;;;;2.88;0.80;;;15.90;72.50;;;;;;4874822;29;19912;-80
2023/10/15 12:42:42;;;;;;;3.13;0.90;;;16.30;71.80;;;;;;4891697;29;20033;-78
2023/10/15 12:45:36;;;;;;;4.38;0.93;;;17.80;66.00;;;;;;4895616;29;20150;-82
2023/10/15 12:48:15;;;;;;;4.22;0.80;;;17.30;67.10;;;;;;4888743;29;20076;-81
2023/10/15 12:54:51;;;;;;;3.58;0.90;;;15.70;68.40;;;;;;4893142;29;20254;-77
2023/10/15 13:10:57;;;;;;;2.33;0.80;;;16.80;65.70;;;;;;4851055;29;20029;-76
2023/10/15 13:13:41;;;;;;;2.35;0.50;;;19.10;61.10;;;;;;4835232;29;20101;-83
2023/10/15 13:16:35;;;;;;;3.20;0.80;;;19.70;58.40;;;;;;4831622;29;20312;-79
2023/10/15 13:19:04;;;;;;;2.17;0.63;;;19.20;57.90;;;;;;4831519;29;20042;-78
2023/10/15 13:21:45;;;;;;;2.85;0.70;;;19.70;58.10;;;;;;4831848;29;20066;-84
2023/10/15 13:24:11;;;;;;;2.38;0.47;;;19.40;57.60;;;;;;4816751;29;20159;-79
2023/10/15 13:26:45;;;;;;;2.33;0.40;;;19.70;55.60;;;;;;4819275;29;20049;-77
2023/10/15 13:29:14;;;;;;;2.88;0.75;;;20.00;55.70;;;;;;4831869;29;20324;-77
2023/10/15 13:32:25;;;;;;;2.53;0.52;;;20.80;55.40;;;;;;4835255;29;20160;-79
2023/10/15 13:35:22;;;;;;;2.85;0.82;;;21.80;53.00;;;;;;4849501;29;20406;-82
2023/10/15 13:38:15;;;;;;;2.00;0.30;;;22.10;52.60;;;;;;4848524;29;20034;-85
2023/10/15 13:44:19;;;;;;;2.67;0.40;;;22.30;52.40;;;;;;4797678;29;20348;-83
2023/10/15 13:50:31;;;;;;;2.45;0.68;;;21.50;54.00;;;;;;4798440;29;20027;-81
2023/10/15 13:53:03;;;;;;;2.90;0.57;;;21.20;53.70;;;;;;4798300;29;20035;-75
2023/10/15 13:56:16;;;;;;;2.25;0.50;;;21.30;54.00;;;;;;4798502;29;20046;-77
2023/10/15 14:03:18;;;;;;;3.75;0.80;;;22.60;51.30;;;;;;4813120;29;20248;-81
2023/10/15 14:06:02;;;;;;;2.10;0.50;;;23.60;49.30;;;;;;4812863;29;20042;-80
2023/10/15 14:08:28;;;;;;;2.38;0.65;;;23.90;48.60;;;;;;4813380;29;20034;-77
2023/10/15 14:10:58;;;;;;;3.88;0.50;;;23.70;48.90;;;;;;4796519;29;20043;-78
2023/10/15 14:13:23;;;;;;;;;;;23.90;49.60;;;;;;4813850;29;20321;-79
2023/10/15 14:16:01;;;;;;;2.55;0.60;;;25.00;47.50;;;;;;4798312;29;19912;-78
2023/10/15 14:18:50;;;;;;;2.38;0.50;;;25.40;46.60;;;;;;4797972;29;20114;-78
2023/10/15 14:21:16;;;;;;;2.90;0.70;;;25.60;46.30;;;;;;4798440;29;20043;-78
2023/10/15 14:24:05;;;;;;;3.22;0.60;;;24.70;46.20;;;;;;4827976;29;20042;-83
2023/10/15 14:26:48;;;;;;;2.38;0.43;;;24.30;47.20;;;;;;4794757;29;20047;-81
2023/10/15 14:29:17;;;;;;;2.65;0.45;;;23.10;48.30;;;;;;4793078;30;20061;-78
2023/10/15 14:31:46;;;;;;;1.95;0.57;;;24.00;48.60;;;;;;4806050;29;20034;-83
2023/10/15 14:34:12;;;;;;;;;;;24.20;46.90;;;;;;4798610;29;20323;-77
2023/10/15 14:36:39;;;;;;;1.35;0.45;;;24.00;47.60;;;;;;4849175;29;20221;-77
2023/10/15 14:39:25;;;;;;;3.33;0.60;;;23.60;49.20;;;;;;4869748;29;20056;-85
2023/10/15 14:42:25;;;;;;;1.75;0.50;;;22.50;50.60;;;;;;4872770;29;20032;-83
2023/10/15 14:45:21;;;;;;;2.28;0.60;;;20.70;53.00;;;;;;4853601;29;20037;-84
2023/10/15 14:47:50;;;;;;;4.65;0.65;;;19.20;55.90;;;;;;4855872;29;20144;-78
2023/10/15 14:50:16;;;;;;;2.55;0.68;;;18.10;57.70;;;;;;4874843;29;20021;-77
2023/10/15 14:52:42;;;;;;;2.03;0.40;;;17.30;59.70;;;;;;4874214;29;20196;-80
2023/10/15 14:55:23;;;;;;;3.92;0.50;;;16.70;60.90;;;;;;4874769;29;20073;-79
2023/10/15 14:57:50;;;;;;;2.47;0.30;;;16.10;62.70;;;;;;4877166;29;20222;-84
2023/10/15 15:01:13;;;;;;;2.47;0.60;;;15.70;63.20;;;;;;4874745;29;20210;-77
2023/10/15 15:04:32;;;;;;;1.90;0.60;;;15.10;64.40;;;;;;4796922;30;20080;-79
2023/10/15 15:07:18;;;;;;;2.40;0.68;;;14.80;64.90;;;;;;4757505;30;20044;-80
2023/10/15 15:10:15;;;;;;;1.45;0.52;;;14.90;65.40;;;;;;4747013;30;20382;-78
2023/10/15 15:13:09;;;;;;;2.65;0.45;;;15.00;65.40;;;;;;4755410;30;20408;-79
2023/10/15 15:16:02;;;;;;;2.45;0.80;;;15.10;65.40;;;;;;4761518;30;20058;-78
2023/10/15 15:18:28;;;;;;;;;;;14.80;64.20;;;;;;4747574;30;20179;-78
2023/10/15 15:21:02;;;;;;;2.67;0.50;;;14.30;63.40;;;;;;4761280;30;19925;-79
2023/10/15 15:23:52;;;;;;;1.60;0.50;;;14.30;63.10;;;;;;4770296;30;20060;-80
2023/10/15 15:26:33;;;;;;;2.72;0.60;;;14.10;63.10;;;;;;4805006;29;20052;-77
2023/10/15 15:29:21;;;;;;;3.67;1.00;;;14.10;63.50;;;;;;4871337;29;20045;-80
2023/10/15 15:32:21;;;;;;;2.17;0.47;;;14.00;62.80;;;;;;4871354;29;20056;-80
2023/10/15 15:38:55;;;;;;;2.83;0.98;;;16.30;57.00;;;;;;4872437;29;20118;-77
2023/10/15 15:41:32;;;;;;;7.82;1.00;;;16.70;56.80;;;;;;4871201;29;20102;-76
2023/10/15 15:44:29;;;;;;;1.92;0.50;;;16.30;56.40;;;;;;4870212;29;20052;-79
2023/10/15 15:46:55;;;;;;;2.35;0.55;;;15.40;57.60;;;;;;4871594;29;20349;-75
2023/10/15 15:49:21;;;;;;;2.83;0.75;;;15.00;58.60;;;;;;4886394;29;20042;-76
2023/10/15 15:51:49;;;;;;;2.95;0.50;;;14.40;59.20;;;;;;4871329;29;20028;-75
2023/10/15 15:54:15;;;;;;;;;;;14.10;61.10;;;;;;4868925;29;20036;-75
2023/10/15 15:56:49;;;;;;;2.25;0.68;;;13.90;61.20;;;;;;4854668;29;20178;-79
2023/10/15 15:59:16;;;;;;;2.08;0.70;;;13.70;61.70;;;;;;4870536;29;20029;-75
2023/10/15 16:01:45;;;;;;;2.40;0.82;;;13.40;62.40;;;;;;4869625;29;20067;-76
2023/10/15 16:04:11;;;;;;;3.72;0.95;;;13.40;63.10;;;;;;4870457;29;20072;-74
2023/10/15 16:06:38;;;;;;;2.63;0.70;;;13.30;64.00;;;;;;4870811;29;20219;-74
2023/10/15 16:09:08;;;;;;;2.55;1.02;;;13.10;63.90;;;;;;4871256;29;20025;-78
2023/10/15 16:11:36;;;;;;;2.35;0.80;;;13.10;63.80;;;;;;4872638;29;20053;-74
2023/10/15 16:14:05;;;;;;;2.40;0.70;;;12.90;64.80;;;;;;4870931;29;20021;-75
2023/10/15 16:16:31;;;;;;;2.47;0.70;;;12.70;64.60;;;;;;4855978;29;20049;-74
2023/10/15 16:18:58;;;;;;;2.28;0.70;;;12.60;65.20;;;;;;4870241;29;20026;-74
2023/10/15 16:21:24;;;;;;;2.85;0.70;;;12.50;66.80;;;;;;4870860;29;20354;-76
2023/10/15 16:23:50;;;;;;;2.20;0.60;;;12.40;66.10;;;;;;4870273;29;20033;-74
2023/10/15 16:26:17;;;;;;;2.97;0.75;;;12.20;66.70;;;;;;4871871;29;20033;-76
2023/10/15 16:28:42;;;;;;;2.33;0.70;;;12.00;67.10;;;;;;4887041;29;20028;-77
2023/10/15 16:31:11;;;;;;;2.45;0.70;;;11.80;68.40;;;;;;4887041;29;20030;-77
2023/10/15 16:33:51;;;;;;;3.03;0.73;;;11.70;68.50;;;;;;4870581;29;20037;-78
2023/10/15 16:36:58;;;;;;;4.30;0.68;;;11.60;68.50;;;;;;4871039;29;20093;-78
2023/10/15 16:39:23;;;;;;;1.95;0.73;;;11.40;69.60;;;;;;4875337;29;20021;-77
2023/10/15 16:41:49;;;;;;;2.63;0.90;;;11.30;69.60;;;;;;4872544;29;20052;-76
2023/10/15 16:44:15;;;;;;;2.88;0.73;;;11.20;70.60;;;;;;4876013;29;20029;-77
2023/10/15 16:46:52;;;;;;;2.90;0.70;;;11.10;70.90;;;;;;4881256;29;20049;-77
2023/10/15 16:49:18;;;;;;;4.25;1.20;;;11.00;71.70;;;;;;4880659;29;20040;-78
2023/10/15 16:51:45;;;;;;;3.38;0.85;;;10.80;72.20;;;;;;4873238;29;20034;-75
2023/10/15 16:54:11;;;;;;;3.47;0.80;;;10.70;73.20;;;;;;4872916;29;20037;-76
2023/10/15 16:56:44;;;;;;;2.50;0.88;;;10.60;73.20;;;;;;4885583;29;20040;-77
2023/10/15 16:59:10;;;;;;;3.00;1.00;;;10.60;73.40;;;;;;4869747;29;20040;-79
2023/10/15 17:01:36;;;;;;;4.00;1.00;;;10.50;74.20;;;;;;4871083;29;20025;-79
2023/10/15 17:04:02;;;;;;;5.60;1.10;;;10.40;74.90;;;;;;4868979;29;20076;-79
2023/10/15 17:06:30;;;;;;;3.72;1.23;;;10.30;75.80;;;;;;4869649;29;20041;-77
2023/10/15 17:08:58;;;;;;;4.57;1.25;;;10.20;76.60;;;;;;4865245;29;20022;-77
2023/10/15 17:11:25;;;;;;;2.38;0.65;;;10.10;77.30;;;;;;4851220;29;20034;-78
2023/10/15 17:13:51;;;;;;;3.28;0.90;;;10.00;77.80;;;;;;4865905;29;20265;-77
2023/10/15 17:16:18;;;;;;;2.90;1.00;;;9.90;78.30;;;;;;4881531;29;20090;-78
2023/10/15 17:18:45;;;;;;;2.20;0.85;;;9.90;79.00;;;;;;4851965;29;20045;-79
2023/10/15 17:21:14;;;;;;;3.10;0.90;;;9.90;79.60;;;;;;4866208;29;20036;-78
2023/10/15 17:23:40;;;;;;;3.58;0.95;;;9.70;79.80;;;;;;4884820;29;20035;-79
2023/10/15 17:26:07;;;;;;;6.25;2.08;;;9.60;80.50;;;;;;4881016;29;20038;-78
2023/10/15 17:28:57;;;;;;;5.90;2.30;;;9.60;80.60;;;;;;4862921;29;20045;-82
2023/10/15 17:31:29;;;;;;;4.88;2.30;;;9.50;81.30;;;;;;4881625;29;20026;-79
2023/10/15 17:33:57;;;;;;;4.63;2.35;;;9.50;81.60;;;;;;4881152;29;20075;-78
2023/10/15 17:36:24;;;;;;;5.65;2.60;;;9.40;82.20;;;;;;4881669;29;20197;-78
2023/10/15 17:38:49;;;;;;;6.22;2.42;;;9.30;82.70;;;;;;4881502;29;20067;-78
2023/10/15 17:41:16;;;;;;;7.70;2.80;;;9.20;83.00;;;;;;4883085;29;20046;-79
2023/10/15 17:43:44;;;;;;;6.70;2.80;;;9.10;83.60;;;;;;4881383;29;20291;-79
2023/10/15 17:46:10;;;;;;;6.30;2.53;;;9.10;84.30;;;;;;4867433;29;20037;-76
2023/10/15 17:48:36;;;;;;;5.60;2.40;;;9.10;84.50;;;;;;4868930;29;20046;-78
2023/10/15 17:51:23;;;;;;;5.25;2.22;;;9.00;84.80;;;;;;4869155;29;20315;-79
2023/10/15 17:53:53;;;;;;;4.25;1.95;;;9.10;84.70;;;;;;4869331;29;20081;-79
2023/10/15 17:56:21;;;;;;;6.32;2.35;;;9.10;84.60;;;;;;4868615;29;20056;-78
2023/10/15 17:58:51;;;;;;;6.93;3.17;;;9.10;84.60;;;;;;4868552;29;20049;-79
2023/10/15 18:01:17;;;;;;;10.75;5.60;;;9.00;85.00;;;;;;4865534;29;20332;-79
2023/10/15 18:03:46;;;;;;;7.05;3.78;;;8.90;85.50;;;;;;4862632;29;20066;-79
2023/10/15 18:06:52;;;;;;;8.23;3.85;;;8.80;86.60;;;;;;4854100;29;20033;-78
2023/10/15 18:09:49;;;;;;;;;;;;;;;;;;;;;
2023/10/15 18:12:40;;;;;;;6.68;3.17;;;8.50;88.40;;;;;;4850438;29;20033;-80
2023/10/15 18:15:19;;;;;;;7.30;3.30;;;8.50;89.00;;;;;;4865846;29;20032;-79
2023/10/15 18:17:49;;;;;;;6.28;3.58;;;8.40;90.00;;;;;;4865593;29;20216;-78
2023/10/15 18:20:16;;;;;;;7.93;3.53;;;8.40;89.10;;;;;;4865172;29;20045;-77
2023/10/15 18:22:46;;;;;;;;;;;8.30;89.70;;;;;;4867293;29;20324;-78
2023/10/15 18:25:15;;;;;;;7.03;3.72;;;8.20;89.80;;;;;;4840233;29;19904;-76
2023/10/15 18:27:41;;;;;;;9.10;3.53;;;8.20;90.60;;;;;;4874876;29;20021;-76
2023/10/15 18:30:08;;;;;;;7.75;4.20;;;8.10;90.80;;;;;;4854700;29;20055;-77
2023/10/15 18:32:34;;;;;;;8.82;4.55;;;8.00;91.00;;;;;;4854784;29;20026;-76
2023/10/15 18:35:00;;;;;;;8.60;4.97;;;7.90;90.90;;;;;;4854832;29;20078;-77
2023/10/15 18:37:29;;;;;;;8.93;4.63;;;7.90;91.20;;;;;;4870069;29;20030;-76
2023/10/15 18:39:55;;;;;;;7.03;3.95;;;7.80;91.40;;;;;;4869619;29;20037;-76
2023/10/15 18:42:21;;;;;;;7.20;3.58;;;7.80;91.50;;;;;;4855544;29;20060;-77
2023/10/15 18:44:47;;;;;;;6.15;3.22;;;7.80;91.60;;;;;;4864630;29;20034;-76
2023/10/15 18:47:13;;;;;;;6.43;3.20;;;7.70;91.70;;;;;;4870865;29;20371;-76
2023/10/15 18:49:41;;;;;;;6.93;2.90;;;7.70;91.80;;;;;;4872887;29;20033;-78
2023/10/15 18:52:07;;;;;;;7.28;3.63;;;7.60;92.00;;;;;;4887859;29;20045;-77
2023/10/15 18:54:33;;;;;;;7.18;3.65;;;7.60;92.50;;;;;;4873950;29;20025;-76
2023/10/15 18:56:59;;;;;;;7.35;3.53;;;7.50;92.80;;;;;;4872527;29;20108;-79
2023/10/15 18:59:28;;;;;;;9.20;3.67;;;7.50;92.70;;;;;;4889243;29;20040;-76
2023/10/15 19:01:59;;;;;;;5.43;2.92;;;7.50;92.70;;;;;;4870822;29;20025;-76
2023/10/15 19:04:29;;;;;;;6.50;2.97;;;7.40;92.70;;;;;;4870773;29;20064;-76
2023/10/15 19:06:54;;;;;;;7.68;2.80;;;7.40;92.70;;;;;;4872661;29;20362;-79
2023/10/15 19:09:20;;;;;;;5.85;2.80;;;7.40;92.90;;;;;;4870113;29;20022;-78
2023/10/15 19:11:47;;;;;;;6.35;3.35;;;7.30;92.80;;;;;;4885527;29;20215;-77
2023/10/15 19:14:13;;;;;;;5.78;3.00;;;7.30;93.00;;;;;;4887983;29;20058;-77
2023/10/15 19:16:39;;;;;;;6.05;2.60;;;7.30;93.00;;;;;;4871329;29;20062;-76
2023/10/15 19:19:05;;;;;;;9.00;3.75;;;7.20;93.30;;;;;;4872325;29;20057;-77
2023/10/15 19:21:34;;;;;;;9.77;4.50;;;7.20;93.70;;;;;;4872421;29;20062;-77
2023/10/15 19:24:00;;;;;;;9.70;4.63;;;7.20;94.50;;;;;;4872407;29;20208;-76
2023/10/15 19:26:26;;;;;;;8.88;4.35;;;7.10;94.70;;;;;;4887876;29;20388;-76
2023/10/15 19:28:52;;;;;;;8.10;4.45;;;7.10;94.70;;;;;;4872434;29;20229;-77
2023/10/15 19:31:18;;;;;;;8.00;4.70;;;7.00;95.00;;;;;;4873195;29;20054;-76
2023/10/15 19:33:44;;;;;;;8.05;3.70;;;7.00;95.30;;;;;;4871988;29;20038;-78
2023/10/15 19:36:10;;;;;;;9.15;3.67;;;7.10;95.30;;;;;;4871593;29;20368;-77
2023/10/15 19:38:36;;;;;;;6.50;3.40;;;7.00;95.30;;;;;;4872145;29;20029;-75
2023/10/15 19:41:03;;;;;;;7.25;3.38;;;7.00;95.50;;;;;;4872486;29;20029;-77
2023/10/15 19:43:32;;;;;;;6.13;3.67;;;6.90;95.60;;;;;;4873752;29;20045;-78
2023/10/15 19:45:58;;;;;;;;;;;6.90;95.80;;;;;;4872690;29;20029;-77
2023/10/15 19:48:24;;;;;;;7.65;3.55;;;6.80;95.80;;;;;;4873055;29;19908;-78
2023/10/15 19:50:50;;;;;;;6.95;3.47;;;6.80;96.20;;;;;;4872581;29;20025;-76
2023/10/15 19:53:26;;;;;;;6.18;3.45;;;6.80;96.30;;;;;;4872208;29;20097;-78
2023/10/15 19:55:52;;;;;;;5.82;3.05;;;6.90;96.00;;;;;;4872314;29;20033;-77
2023/10/15 19:58:18;;;;;;;9.52;3.53;;;6.90;96.00;;;;;;4871753;29;20061;-77
2023/10/15 20:00:49;;;;;;;8.65;3.95;;;6.80;96.00;;;;;;4872288;29;20032;-75
2023/10/15 20:03:16;;;;;;;7.93;4.32;;;6.80;96.30;;;;;;4871559;29;20056;-76
2023/10/15 20:05:42;;;;;;;7.18;3.63;;;6.80;96.60;;;;;;4887583;29;20053;-75
2023/10/15 20:08:09;;;;;;;6.90;3.78;;;6.70;96.50;;;;;;4870987;29;20223;-77
2023/10/15 20:10:35;;;;;;;5.85;3.65;;;6.70;96.50;;;;;;4872912;29;20037;-76
2023/10/15 20:13:05;;;;;;;6.43;3.78;;;6.70;96.90;;;;;;4871916;29;20033;-77
2023/10/15 20:15:33;;;;;;;7.75;3.80;;;6.60;97.10;;;;;;4872161;29;20028;-77
2023/10/15 20:18:00;;;;;;;5.95;3.08;;;6.60;97.40;;;;;;4871452;29;20041;-77
2023/10/15 20:20:26;;;;;;;8.65;3.97;;;6.60;97.70;;;;;;4872084;29;20041;-77
2023/10/15 20:22:52;;;;;;;5.65;3.35;;;6.60;97.90;;;;;;4871990;29;20025;-77
2023/10/15 20:25:19;;;;;;;7.13;3.42;;;6.50;98.10;;;;;;4870798;29;20029;-78
2023/10/15 20:27:57;;;;;;;8.20;3.63;;;6.40;98.50;;;;;;4872115;29;20105;-76
2023/10/15 20:30:25;;;;;;;6.78;3.85;;;6.40;98.90;;;;;;4872057;29;20096;-76
2023/10/15 20:32:53;;;;;;;8.13;3.53;;;6.40;99.30;;;;;;4872044;29;20030;-77
2023/10/15 20:35:19;;;;;;;7.47;4.05;;;6.30;99.20;;;;;;4871991;29;20335;-76
2023/10/15 20:37:45;;;;;;;8.30;4.47;;;6.30;99.20;;;;;;4871922;29;20033;-77
2023/10/15 20:40:14;;;;;;;8.40;3.67;;;6.30;99.60;;;;;;4856534;29;20033;-76
2023/10/15 20:42:48;;;;;;;6.10;3.60;;;6.30;99.30;;;;;;4873323;29;20329;-73
2023/10/15 20:45:19;;;;;;;9.05;3.95;;;6.30;99.40;;;;;;4875693;29;20049;-76
2023/10/15 20:47:48;;;;;;;8.90;3.40;;;6.20;99.70;;;;;;4881883;29;20041;-76
2023/10/15 20:50:16;;;;;;;8.13;3.70;;;6.20;99.90;;;;;;4876452;29;20033;-77
2023/10/15 20:52:43;;;;;;;7.72;3.45;;;6.20;99.90;;;;;;4862955;29;20041;-77
2023/10/15 20:55:13;;;;;;;6.60;3.70;;;6.10;99.90;;;;;;4875397;29;20021;-76
2023/10/15 20:57:40;;;;;;;8.27;3.85;;;6.10;99.90;;;;;;4871485;29;20033;-78
2023/10/15 21:00:11;;;;;;;6.22;3.65;;;6.00;99.90;;;;;;4870946;29;20104;-76
2023/10/15 21:02:43;;;;;;;8.82;3.58;;;6.00;99.90;;;;;;4855728;29;20059;-77
2023/10/15 21:05:10;;;;;;;6.53;3.80;;;5.90;99.90;;;;;;4871345;29;20061;-78
2023/10/15 21:07:37;;;;;;;5.80;3.40;;;6.00;99.90;;;;;;4871449;29;20045;-79
2023/10/15 21:10:09;;;;;;;7.78;4.25;;;5.90;99.90;;;;;;4871432;29;20355;-76
2023/10/15 21:12:36;;;;;;;7.45;3.72;;;5.90;99.90;;;;;;4871554;29;20037;-78
2023/10/15 21:15:07;;;;;;;8.23;3.50;;;5.80;99.90;;;;;;4870338;29;20414;-77
2023/10/15 21:17:33;;;;;;;7.80;3.42;;;5.70;99.90;;;;;;4871433;29;20426;-77
2023/10/15 21:20:09;;;;;;;8.50;3.50;;;5.70;99.90;;;;;;4871249;29;20041;-80
2023/10/15 21:22:36;;;;;;;7.47;3.92;;;5.70;99.90;;;;;;4871447;29;20029;-76
2023/10/15 21:25:11;;;;;;;8.25;3.85;;;5.70;99.90;;;;;;4872565;29;20025;-76
2023/10/15 21:27:37;;;;;;;7.03;3.42;;;5.70;99.90;;;;;;4873214;29;20041;-76
2023/10/15 21:30:08;;;;;;;8.23;4.03;;;5.80;99.90;;;;;;4865552;29;20084;-77
2023/10/15 21:32:37;;;;;;;6.25;3.47;;;5.70;99.90;;;;;;4871376;29;20034;-76
2023/10/15 21:35:05;;;;;;;8.25;3.70;;;5.70;99.90;;;;;;4870639;29;20253;-78
2023/10/15 21:37:31;;;;;;;6.97;4.15;;;5.70;99.90;;;;;;4871210;29;20029;-78
2023/10/15 21:39:57;;;;;;;8.43;3.22;;;5.60;99.90;;;;;;4856337;29;20331;-78